Time;durP1;ratioP1;P1;durP2;ratioP2;P2;SDS_P1;SDS_P2;PMS_P1;PMS_P2;Temp;Humidity;BMP_temperature;BMP_pressure;BME280_temperature;BME280_humidity;BME280_pressure;Samples;Min_cycle;Max_cycle;Signal;HPM_P1;HPM_P2
2022/03/15 00:01:17;;;;;;;8.45;6.63;;;;;;;;;;10461446;28;20117;-43
2022/03/15 00:06:18;;;;;;;8.43;6.55;;;;;;;;;;10454452;28;20025;-43
2022/03/15 00:11:18;;;;;;;9.90;6.53;;;;;;;;;;10464633;28;20067;-43
2022/03/15 00:16:19;;;;;;;9.10;6.65;;;;;;;;;;10448910;28;20041;-43
2022/03/15 00:21:20;;;;;;;10.73;7.15;;;;;;;;;;10456400;28;20103;-43
2022/03/15 00:26:20;;;;;;;9.05;6.57;;;;;;;;;;10468265;28;20124;-42
2022/03/15 00:31:21;;;;;;;7.95;6.85;;;;;;;;;;10462107;28;20074;-43
2022/03/15 00:36:22;;;;;;;9.63;7.43;;;;;;;;;;10459232;28;20041;-43
2022/03/15 00:41:23;;;;;;;8.32;6.22;;;;;;;;;;10461122;28;20067;-43
2022/03/15 00:46:23;;;;;;;8.18;6.60;;;;;;;;;;10466207;28;20032;-44
2022/03/15 00:51:24;;;;;;;7.90;6.57;;;;;;;;;;10462772;28;20079;-43
2022/03/15 00:56:25;;;;;;;10.07;6.47;;;;;;;;;;10463740;28;20041;-46
2022/03/15 01:01:25;;;;;;;9.60;6.55;;;;;;;;;;10457186;28;20040;-47
2022/03/15 01:06:26;;;;;;;7.82;6.57;;;;;;;;;;10460111;28;20025;-47
2022/03/15 01:11:26;;;;;;;8.50;6.28;;;;;;;;;;10467812;28;20177;-43
2022/03/15 01:16:27;;;;;;;8.55;6.85;;;;;;;;;;10461924;28;20040;-44
2022/03/15 01:21:29;;;;;;;8.45;6.43;;;;;;;;;;10464366;28;20388;-43
2022/03/15 01:26:29;;;;;;;8.77;6.78;;;;;;;;;;10455142;28;20391;-43
2022/03/15 01:31:30;;;;;;;7.75;6.05;;;;;;;;;;10470964;28;20029;-50
2022/03/15 01:36:31;;;;;;;8.95;6.40;;;;;;;;;;10463610;28;20492;-48
2022/03/15 01:41:38;;;;;;;8.63;6.43;;;;;;;;;;10469503;28;20037;-50
2022/03/15 01:46:39;;;;;;;8.20;5.65;;;;;;;;;;10466082;28;20110;-50
2022/03/15 01:51:41;;;;;;;9.88;6.38;;;;;;;;;;10468862;28;20116;-48
2022/03/15 01:56:43;;;;;;;7.85;6.20;;;;;;;;;;10467027;28;20025;-43
2022/03/15 02:01:46;;;;;;;6.68;5.80;;;;;;;;;;10466292;28;20029;-43
2022/03/15 02:06:50;;;;;;;7.65;6.35;;;;;;;;;;10459633;28;20037;-43
2022/03/15 02:11:50;;;;;;;7.82;6.03;;;;;;;;;;10463819;28;20647;-43
2022/03/15 02:16:52;;;;;;;9.30;6.47;;;;;;;;;;10458744;28;20246;-43
2022/03/15 02:21:57;;;;;;;6.97;5.75;;;;;;;;;;10469619;28;20043;-43
2022/03/15 02:26:58;;;;;;;7.78;6.13;;;;;;;;;;10440831;28;20037;-43
2022/03/15 02:31:58;;;;;;;9.73;6.00;;;;;;;;;;10469119;28;20036;-43
2022/03/15 02:36:59;;;;;;;6.47;5.78;;;;;;;;;;10454816;28;20076;-43
2022/03/15 02:42:00;;;;;;;6.60;5.72;;;;;;;;;;10462784;28;20027;-43
2022/03/15 02:47:01;;;;;;;9.88;5.88;;;;;;;;;;10460395;28;20059;-43
2022/03/15 02:52:02;;;;;;;8.27;6.13;;;;;;;;;;10463536;28;20102;-43
2022/03/15 02:57:03;;;;;;;10.27;5.85;;;;;;;;;;10459141;28;20052;-43
2022/03/15 03:02:03;;;;;;;7.88;6.15;;;;;;;;;;10460787;28;20028;-43
2022/03/15 03:07:06;;;;;;;7.30;5.88;;;;;;;;;;10454872;28;20056;-42
2022/03/15 03:12:08;;;;;;;7.20;5.78;;;;;;;;;;10456588;28;20037;-43
2022/03/15 03:17:08;;;;;;;7.30;5.78;;;;;;;;;;10455102;28;20037;-42
2022/03/15 03:22:10;;;;;;;8.05;5.82;;;;;;;;;;10459632;28;20025;-43
2022/03/15 03:27:13;;;;;;;6.53;5.53;;;;;;;;;;10456784;28;20025;-60
2022/03/15 03:32:14;;;;;;;7.18;5.40;;;;;;;;;;10459372;28;20557;-42
2022/03/15 03:37:14;;;;;;;6.65;5.45;;;;;;;;;;10445777;28;20111;-42
2022/03/15 03:42:15;;;;;;;6.43;5.63;;;;;;;;;;10458315;28;20031;-42
2022/03/15 03:47:17;;;;;;;7.50;5.22;;;;;;;;;;10449669;28;20508;-42
2022/03/15 03:52:18;;;;;;;6.43;5.40;;;;;;;;;;10453444;28;20036;-42
2022/03/15 03:57:19;;;;;;;5.72;5.13;;;;;;;;;;10463799;28;20480;-42
2022/03/15 04:02:20;;;;;;;5.90;5.30;;;;;;;;;;10467882;28;20028;-42
2022/03/15 08:27:47;;;;;;;9.88;7.57;;;;;;;;;;10414756;28;21341;-59
2022/03/15 08:32:47;;;;;;;13.38;8.10;;;;;;;;;;10375963;28;20268;-49
2022/03/15 08:37:53;;;;;;;17.15;7.57;;;;;;;;;;10385175;28;20029;-63
2022/03/15 08:42:54;;;;;;;10.20;7.47;;;;;;;;;;10397251;28;20438;-60
2022/03/15 08:47:54;;;;;;;9.45;7.28;;;;;;;;;;10393446;28;20140;-64
2022/03/15 08:52:55;;;;;;;10.93;8.02;;;;;;;;;;10406831;28;20021;-49
2022/03/15 08:57:56;;;;;;;15.77;7.57;;;;;;;;;;10378218;28;20125;-59
2022/03/15 09:02:57;;;;;;;13.90;7.85;;;;;;;;;;10383628;28;20125;-54
2022/03/15 09:07:58;;;;;;;10.75;8.13;;;;;;;;;;10379178;28;20038;-59
2022/03/15 09:12:59;;;;;;;13.88;7.80;;;;;;;;;;10380264;28;20056;-51
2022/03/15 09:22:39;;;;;;;10.88;8.15;;;;;;;;;;10480121;28;20643;-46
2022/03/15 09:28:34;;;;;;;12.32;8.13;;;;;;;;;;10484638;28;20610;-49
2022/03/15 09:33:35;;;;;;;12.40;7.88;;;;;;;;;;10424591;28;20045;-50
2022/03/15 09:38:36;;;;;;;11.15;7.47;;;;;;;;;;10430989;28;20029;-49
2022/03/15 09:43:45;;;;;;;13.77;8.15;;;;;;;;;;10425377;28;20492;-49
2022/03/15 09:48:47;;;;;;;9.82;7.85;;;;;;;;;;10424913;28;20468;-48
2022/03/15 09:53:50;;;;;;;13.38;9.80;;;;;;;;;;10422869;28;20064;-51
2022/03/15 09:58:51;;;;;;;13.45;10.27;;;;;;;;;;10416923;28;20071;-56
2022/03/15 10:03:51;;;;;;;16.05;9.98;;;;;;;;;;10416906;28;20134;-59
2022/03/15 10:08:52;;;;;;;13.25;8.50;;;;;;;;;;10416377;28;20063;-60
2022/03/15 10:13:52;;;;;;;11.88;8.65;;;;;;;;;;10432569;28;20041;-51
2022/03/15 10:18:55;;;;;;;13.18;8.00;;;;;;;;;;10427894;28;20029;-54
2022/03/15 10:23:58;;;;;;;10.95;8.57;;;;;;;;;;10428777;28;20110;-52
2022/03/15 10:28:59;;;;;;;11.38;7.80;;;;;;;;;;10429912;28;20494;-50
2022/03/15 10:34:03;;;;;;;9.63;7.10;;;;;;;;;;10437283;28;20029;-53
2022/03/15 10:39:05;;;;;;;10.07;6.90;;;;;;;;;;10410448;28;20060;-48
2022/03/15 10:44:18;;;;;;;8.27;6.82;;;;;;;;;;10402623;28;20384;-51
2022/03/15 10:49:19;;;;;;;9.57;6.68;;;;;;;;;;10407286;28;20030;-55
2022/03/15 10:54:24;;;;;;;8.43;6.80;;;;;;;;;;10411811;28;20032;-51
2022/03/15 10:59:26;;;;;;;8.90;6.10;;;;;;;;;;10402854;28;20030;-48
2022/03/15 11:04:26;;;;;;;10.50;6.60;;;;;;;;;;10405221;28;20037;-47
2022/03/15 11:09:31;;;;;;;7.95;5.95;;;;;;;;;;10397541;28;20029;-51
2022/03/15 11:14:54;;;;;;;10.40;5.93;;;;;;;;;;10406118;28;20037;-58
2022/03/15 11:20:00;;;;;;;8.85;6.20;;;;;;;;;;10393520;28;20061;-51
2022/03/15 11:25:14;;;;;;;8.35;5.55;;;;;;;;;;10399360;28;20061;-57
2022/03/15 11:30:18;;;;;;;9.35;5.85;;;;;;;;;;10398142;28;20108;-55
2022/03/15 11:35:22;;;;;;;8.52;5.60;;;;;;;;;;10400563;28;20475;-60
2022/03/15 11:40:22;;;;;;;7.03;5.78;;;;;;;;;;10416135;28;20044;-49
2022/03/15 11:45:36;;;;;;;5.70;5.07;;;;;;;;;;10394781;28;20029;-53
2022/03/15 11:51:13;;;;;;;7.38;5.05;;;;;;;;;;10398658;28;20472;-46
2022/03/15 11:56:31;;;;;;;8.32;5.05;;;;;;;;;;10392450;28;20030;-47
2022/03/15 12:01:44;;;;;;;6.30;5.47;;;;;;;;;;10403937;28;20029;-46
2022/03/15 12:06:55;;;;;;;7.15;5.38;;;;;;;;;;10393526;28;20117;-48
2022/03/15 12:12:08;;;;;;;9.65;5.10;;;;;;;;;;10398375;28;20122;-46
2022/03/15 12:17:12;;;;;;;7.55;5.03;;;;;;;;;;10395296;28;20033;-46
2022/03/15 12:22:26;;;;;;;7.85;5.25;;;;;;;;;;10391044;28;20037;-51
2022/03/15 12:27:27;;;;;;;6.35;4.78;;;;;;;;;;10389362;28;20045;-46
2022/03/15 12:32:28;;;;;;;5.15;4.45;;;;;;;;;;10401204;28;20056;-48
2022/03/15 12:37:37;;;;;;;6.38;4.97;;;;;;;;;;10400110;28;20026;-46
2022/03/15 12:42:49;;;;;;;6.82;5.22;;;;;;;;;;10406594;28;20033;-47
2022/03/15 12:47:51;;;;;;;5.68;4.53;;;;;;;;;;10392910;28;20506;-50
2022/03/15 12:53:14;;;;;;;7.07;5.18;;;;;;;;;;10395176;28;20049;-49
2022/03/15 12:58:15;;;;;;;6.03;4.97;;;;;;;;;;10393311;28;20175;-54
2022/03/15 13:03:18;;;;;;;6.28;4.70;;;;;;;;;;10389636;28;20126;-52
2022/03/15 13:08:20;;;;;;;5.55;4.35;;;;;;;;;;10402475;28;20033;-53
2022/03/15 13:13:29;;;;;;;5.30;4.20;;;;;;;;;;10399684;28;20057;-49
2022/03/15 13:18:31;;;;;;;7.30;4.50;;;;;;;;;;10397249;28;20217;-49
2022/03/15 13:23:45;;;;;;;6.22;4.15;;;;;;;;;;10408137;28;20026;-47
2022/03/15 13:28:51;;;;;;;7.25;4.47;;;;;;;;;;10392867;28;20484;-48
2022/03/15 13:33:54;;;;;;;7.90;4.30;;;;;;;;;;10403570;28;20044;-50
2022/03/15 13:39:07;;;;;;;5.60;4.63;;;;;;;;;;10404755;28;20029;-48
2022/03/15 13:44:17;;;;;;;5.43;4.13;;;;;;;;;;10389124;28;20029;-49
2022/03/15 13:49:24;;;;;;;4.47;3.58;;;;;;;;;;10408414;28;20029;-55
2022/03/15 13:54:25;;;;;;;4.60;3.95;;;;;;;;;;10402705;28;20026;-57
2022/03/15 13:59:27;;;;;;;4.75;4.22;;;;;;;;;;10379981;28;20037;-50
2022/03/15 14:04:30;;;;;;;4.40;4.00;;;;;;;;;;10376714;28;20052;-49
2022/03/15 14:09:36;;;;;;;5.75;3.97;;;;;;;;;;10379613;28;20283;-49
2022/03/15 14:14:50;;;;;;;4.28;3.88;;;;;;;;;;10416357;28;20034;-50
2022/03/15 14:19:55;;;;;;;3.92;3.53;;;;;;;;;;10391684;28;20097;-55
2022/03/15 14:25:03;;;;;;;4.32;3.92;;;;;;;;;;10413838;28;20419;-47
2022/03/15 14:30:04;;;;;;;3.92;3.53;;;;;;;;;;10383930;28;20044;-51
2022/03/15 14:35:09;;;;;;;4.95;3.88;;;;;;;;;;10404549;28;20026;-47
2022/03/15 14:40:13;;;;;;;5.10;4.13;;;;;;;;;;10384161;28;20079;-55
2022/03/15 14:45:14;;;;;;;4.70;3.88;;;;;;;;;;10424003;28;20484;-53
2022/03/15 14:50:15;;;;;;;5.78;4.30;;;;;;;;;;10433047;28;20124;-50
2022/03/15 14:55:17;;;;;;;6.93;4.07;;;;;;;;;;10435843;28;20036;-44
2022/03/15 15:00:18;;;;;;;4.43;3.97;;;;;;;;;;10443151;28;20553;-45
2022/03/15 15:05:20;;;;;;;4.50;4.05;;;;;;;;;;10423416;28;20087;-45
2022/03/15 15:10:22;;;;;;;7.53;4.38;;;;;;;;;;10424276;28;20030;-48
2022/03/15 15:15:24;;;;;;;4.30;3.53;;;;;;;;;;10416050;28;20029;-50
2022/03/15 15:20:26;;;;;;;5.07;3.95;;;;;;;;;;10429798;28;20021;-46
2022/03/15 15:25:28;;;;;;;6.13;4.30;;;;;;;;;;10433113;28;20040;-46
2022/03/15 15:30:30;;;;;;;3.90;3.50;;;;;;;;;;10433557;28;20231;-45
2022/03/15 15:35:31;;;;;;;4.30;3.75;;;;;;;;;;10435776;28;20124;-45
2022/03/15 15:40:35;;;;;;;5.45;3.92;;;;;;;;;;10442844;28;20101;-61
2022/03/15 15:45:36;;;;;;;5.43;3.75;;;;;;;;;;10427610;28;20167;-59
2022/03/15 15:50:43;;;;;;;4.22;3.65;;;;;;;;;;10443649;28;20104;-59
2022/03/15 15:55:45;;;;;;;3.83;3.30;;;;;;;;;;10422572;28;20068;-65
2022/03/15 16:00:46;;;;;;;6.90;3.75;;;;;;;;;;10432493;28;20040;-62
2022/03/15 16:05:46;;;;;;;4.53;3.88;;;;;;;;;;10434425;28;20037;-58
2022/03/15 16:10:47;;;;;;;4.82;3.60;;;;;;;;;;10442820;28;20303;-58
2022/03/15 16:15:48;;;;;;;11.07;4.53;;;;;;;;;;10429927;28;20410;-50
2022/03/15 16:20:50;;;;;;;19.10;11.98;;;;;;;;;;10441001;28;20029;-59
2022/03/15 16:25:51;;;;;;;17.10;9.30;;;;;;;;;;10415935;28;20061;-59
2022/03/15 16:30:55;;;;;;;25.85;9.82;;;;;;;;;;10439734;28;20545;-61
2022/03/15 16:35:56;;;;;;;15.13;8.90;;;;;;;;;;10435975;28;20033;-56
2022/03/15 16:40:57;;;;;;;18.63;9.00;;;;;;;;;;10435108;28;20078;-55
2022/03/15 16:45:58;;;;;;;12.23;8.35;;;;;;;;;;10425675;28;20033;-50
2022/03/15 16:50:58;;;;;;;14.35;7.72;;;;;;;;;;10429836;28;20020;-58
2022/03/15 16:56:01;;;;;;;15.23;7.40;;;;;;;;;;10433880;28;20025;-56
2022/03/15 17:01:03;;;;;;;11.27;7.13;;;;;;;;;;10432628;28;20048;-57
2022/03/15 17:06:03;;;;;;;16.42;7.05;;;;;;;;;;10433724;28;20048;-55
2022/03/15 17:11:07;;;;;;;9.85;6.43;;;;;;;;;;10436991;28;20063;-58
2022/03/15 17:16:18;;;;;;;9.82;6.35;;;;;;;;;;10429866;28;20123;-55
2022/03/15 17:21:26;;;;;;;11.50;5.95;;;;;;;;;;10442362;28;20045;-50
2022/03/15 17:26:32;;;;;;;13.32;6.20;;;;;;;;;;10431161;28;20049;-56
2022/03/15 17:31:37;;;;;;;13.07;6.15;;;;;;;;;;10425236;28;20167;-60
2022/03/15 17:36:39;;;;;;;9.95;5.82;;;;;;;;;;10436675;28;20513;-60
2022/03/15 17:41:44;;;;;;;12.50;5.55;;;;;;;;;;10426467;28;20029;-59
2022/03/15 17:46:46;;;;;;;10.23;5.47;;;;;;;;;;10437129;28;20102;-62
2022/03/15 17:51:46;;;;;;;8.00;4.68;;;;;;;;;;10438454;28;20037;-62
2022/03/15 17:56:49;;;;;;;10.60;5.20;;;;;;;;;;10428889;28;20040;-60
2022/03/15 18:01:54;;;;;;;9.95;4.88;;;;;;;;;;10432194;28;20025;-62
2022/03/15 18:06:55;;;;;;;10.32;5.43;;;;;;;;;;10428650;28;20476;-58
2022/03/15 18:12:00;;;;;;;11.35;5.10;;;;;;;;;;10437045;28;20112;-58
2022/03/15 18:17:01;;;;;;;10.98;5.22;;;;;;;;;;10426866;28;20036;-58
2022/03/15 18:22:02;;;;;;;8.93;4.85;;;;;;;;;;10430599;28;20078;-59
2022/03/15 18:27:03;;;;;;;7.28;4.70;;;;;;;;;;10428808;28;20083;-59
2022/03/15 18:32:05;;;;;;;7.45;4.90;;;;;;;;;;10414819;28;20034;-59
2022/03/15 18:37:05;;;;;;;6.63;4.40;;;;;;;;;;10419307;28;20025;-59
2022/03/15 18:42:06;;;;;;;7.10;4.85;;;;;;;;;;10424996;28;20022;-58
2022/03/15 18:47:08;;;;;;;5.32;4.18;;;;;;;;;;10424553;28;20178;-58
2022/03/15 18:52:09;;;;;;;8.15;4.47;;;;;;;;;;10427400;28;20021;-59
2022/03/15 18:57:10;;;;;;;6.32;4.15;;;;;;;;;;10427141;28;20045;-58
2022/03/15 19:02:10;;;;;;;8.05;4.13;;;;;;;;;;10428576;28;20028;-59
2022/03/15 19:07:12;;;;;;;5.65;4.10;;;;;;;;;;10422891;28;20526;-58
2022/03/15 19:12:13;;;;;;;10.52;4.43;;;;;;;;;;10434747;28;20104;-56
2022/03/15 19:17:14;;;;;;;7.70;4.38;;;;;;;;;;10435469;28;20276;-59
2022/03/15 19:22:15;;;;;;;6.72;4.28;;;;;;;;;;10433531;28;20599;-55
2022/03/15 19:27:16;;;;;;;7.50;4.18;;;;;;;;;;10439244;28;20045;-58
2022/03/15 19:32:19;;;;;;;6.03;3.85;;;;;;;;;;10436483;28;20452;-58
2022/03/15 19:37:20;;;;;;;8.32;4.35;;;;;;;;;;10424242;28;20091;-57
2022/03/15 19:42:24;;;;;;;8.65;3.90;;;;;;;;;;10429436;28;20041;-58
2022/03/15 19:47:27;;;;;;;7.10;4.10;;;;;;;;;;10438910;28;20396;-54
2022/03/15 19:52:27;;;;;;;9.55;3.83;;;;;;;;;;10444163;28;20028;-59
2022/03/15 19:57:29;;;;;;;7.22;3.85;;;;;;;;;;10441246;28;20468;-58
2022/03/15 20:02:30;;;;;;;6.90;4.03;;;;;;;;;;10440632;28;20476;-54
2022/03/15 20:07:36;;;;;;;5.18;3.95;;;;;;;;;;10438356;28;20041;-58
2022/03/15 20:12:38;;;;;;;6.85;4.00;;;;;;;;;;10438748;28;20263;-56
2022/03/15 20:17:43;;;;;;;7.55;4.10;;;;;;;;;;10437761;28;20031;-56
2022/03/15 20:22:44;;;;;;;11.05;4.07;;;;;;;;;;10430486;28;20209;-58
2022/03/15 20:27:45;;;;;;;7.57;4.32;;;;;;;;;;10427094;28;20059;-56
2022/03/15 20:32:46;;;;;;;5.97;3.97;;;;;;;;;;10430493;28;20064;-60
2022/03/15 20:37:46;;;;;;;6.75;4.07;;;;;;;;;;10428643;28;20025;-57
2022/03/15 20:48:06;;;;;;;7.70;4.22;;;;;;;;;;10423062;28;20422;-58
2022/03/15 20:53:07;;;;;;;9.27;3.78;;;;;;;;;;10429882;28;20032;-58
2022/03/15 20:58:08;;;;;;;6.68;3.40;;;;;;;;;;10435580;28;20037;-58
2022/03/15 21:03:10;;;;;;;5.63;3.50;;;;;;;;;;10436528;28;20296;-56
2022/03/15 21:08:15;;;;;;;6.57;4.13;;;;;;;;;;10417925;28;20052;-58
2022/03/15 21:13:20;;;;;;;4.93;3.78;;;;;;;;;;10426821;28;20033;-58
2022/03/15 21:18:23;;;;;;;5.68;3.80;;;;;;;;;;10426547;28;20069;-59
2022/03/15 21:23:28;;;;;;;5.90;4.10;;;;;;;;;;10439693;28;20025;-59
2022/03/15 21:28:29;;;;;;;5.38;4.15;;;;;;;;;;10433038;28;20049;-57
2022/03/15 21:33:31;;;;;;;5.03;3.55;;;;;;;;;;10435815;28;20029;-58
2022/03/15 21:38:32;;;;;;;10.45;4.18;;;;;;;;;;10428882;28;20041;-56
2022/03/15 21:43:33;;;;;;;8.60;4.03;;;;;;;;;;10431892;28;20036;-57
2022/03/15 21:48:38;;;;;;;5.63;3.95;;;;;;;;;;10420637;28;20549;-58
2022/03/15 21:53:40;;;;;;;6.97;3.88;;;;;;;;;;10430899;28;20035;-58
2022/03/15 21:58:41;;;;;;;9.40;4.10;;;;;;;;;;10426954;28;20036;-57
2022/03/15 22:03:42;;;;;;;7.22;4.72;;;;;;;;;;10427615;28;20087;-58
2022/03/15 22:08:42;;;;;;;8.10;3.97;;;;;;;;;;10418565;28;20033;-58
2022/03/15 22:13:44;;;;;;;6.50;3.70;;;;;;;;;;10426804;28;20469;-58
2022/03/15 22:18:47;;;;;;;4.07;3.67;;;;;;;;;;10415058;28;20037;-57
2022/03/15 22:23:48;;;;;;;5.60;3.70;;;;;;;;;;10426184;28;20488;-59
2022/03/15 22:28:50;;;;;;;6.18;3.50;;;;;;;;;;10433926;28;20101;-58
2022/03/15 23:16:27;;;;;;;5.78;3.10;;;;;;;;;;10429772;28;19968;-58
2022/03/15 23:32:07;;;;;;;5.72;3.42;;;;;;;;;;10445643;28;20025;-58
2022/03/15 23:37:08;;;;;;;8.48;4.00;;;;;;;;;;10433723;28;20403;-58
2022/03/15 23:42:08;;;;;;;7.15;4.10;;;;;;;;;;10435692;28;20046;-58
2022/03/15 23:47:09;;;;;;;6.97;3.70;;;;;;;;;;10434291;28;20059;-60
2022/03/15 23:52:09;;;;;;;4.63;3.63;;;;;;;;;;10415888;28;20497;-60
2022/03/15 23:57:10;;;;;;;5.32;3.60;;;;;;;;;;10424641;28;20026;-59
